createdAt,value
2023-04-29T00:02:56.322Z,53.83
2023-04-29T00:05:59.555Z,53.75
2023-04-29T00:09:02.046Z,54.02
2023-04-29T00:12:04.540Z,54.04
2023-04-29T00:15:08.961Z,53.64
2023-04-29T00:18:11.572Z,53.99
2023-04-29T00:21:13.960Z,53.85
2023-04-29T00:24:16.327Z,54.03
2023-04-29T00:27:18.770Z,54.06
2023-04-29T00:30:21.184Z,54.30
2023-04-29T00:33:23.614Z,54.02
2023-04-29T00:36:26.413Z,54.10
2023-04-29T00:39:28.800Z,53.92
2023-04-29T00:42:33.296Z,54.02
2023-04-29T00:45:35.948Z,54.21
2023-04-29T00:48:38.392Z,54.15
2023-04-29T00:51:41.252Z,53.94
2023-04-29T00:54:44.012Z,54.40
2023-04-29T00:57:48.536Z,54.17
2023-04-29T01:00:51.048Z,54.23
2023-04-29T01:03:53.780Z,54.58
2023-04-29T01:07:17.024Z,54.41
2023-04-29T01:10:30.318Z,53.97
2023-04-29T01:13:54.086Z,53.95
2023-04-29T01:17:00.337Z,54.21
2023-04-29T01:20:03.715Z,54.21
2023-04-29T01:23:06.047Z,54.38
2023-04-29T01:26:08.655Z,54.40
2023-04-29T01:29:27.953Z,54.34
2023-04-29T01:32:48.141Z,54.55
2023-04-29T01:36:14.100Z,54.40
2023-04-29T01:39:27.125Z,54.55
2023-04-29T01:42:47.208Z,54.44
2023-04-29T01:45:54.066Z,54.54
2023-04-29T01:48:57.408Z,54.40
2023-04-29T01:51:59.754Z,54.09
2023-04-29T01:55:02.175Z,54.16
2023-04-29T01:58:13.308Z,54.26
2023-04-29T02:01:30.679Z,54.36
2023-04-29T02:04:34.633Z,54.31
2023-04-29T02:07:38.287Z,54.67
2023-04-29T02:10:40.752Z,54.42
2023-04-29T02:13:51.819Z,54.58
2023-04-29T02:16:54.186Z,54.69
2023-04-29T02:19:57.197Z,54.32
2023-04-29T02:22:59.668Z,54.56
2023-04-29T02:26:02.247Z,54.37
2023-04-29T02:29:04.603Z,54.63
2023-04-29T02:32:07.101Z,54.35
2023-04-29T02:35:09.864Z,54.53
2023-04-29T02:38:13.063Z,54.46
2023-04-29T02:41:18.487Z,54.62
2023-04-29T02:44:23.614Z,54.68
2023-04-29T02:47:26.048Z,54.58
2023-04-29T02:50:28.819Z,54.38
2023-04-29T02:53:31.223Z,54.63
2023-04-29T02:56:33.666Z,54.75
2023-04-29T02:59:36.189Z,54.53
2023-04-29T03:02:38.753Z,54.27
2023-04-29T03:05:41.562Z,54.63
2023-04-29T03:08:43.953Z,54.66
2023-04-29T03:11:46.321Z,54.86
2023-04-29T03:14:48.801Z,54.65
2023-04-29T03:17:51.220Z,54.62
2023-04-29T03:20:54.186Z,54.76
2023-04-29T03:23:56.692Z,54.79
2023-04-29T03:27:05.364Z,54.89
2023-04-29T03:30:09.349Z,54.63
2023-04-29T03:33:17.326Z,54.80
2023-04-29T03:36:20.276Z,54.61
2023-04-29T03:39:32.780Z,54.55
2023-04-29T03:42:35.189Z,54.85
2023-04-29T03:45:38.434Z,54.57
2023-04-29T03:48:41.986Z,54.82
2023-04-29T03:51:47.274Z,54.64
2023-04-29T03:54:51.739Z,54.78
2023-04-29T03:57:54.136Z,54.91
2023-04-29T04:00:57.071Z,54.58
2023-04-29T04:04:07.006Z,55.01
2023-04-29T04:07:11.743Z,54.64
2023-04-29T04:10:34.051Z,54.93
2023-04-29T04:13:39.248Z,54.82
2023-04-29T04:16:42.251Z,54.72
2023-04-29T04:19:44.863Z,54.85
2023-04-29T04:22:47.227Z,54.46
2023-04-29T04:25:56.518Z,54.65
2023-04-29T04:29:21.973Z,54.71
2023-04-29T04:32:33.659Z,54.73
2023-04-29T04:35:36.009Z,55.41
2023-04-29T04:38:38.430Z,54.96
2023-04-29T04:41:45.846Z,55.02
2023-04-29T04:44:48.248Z,54.80
2023-04-29T04:48:01.875Z,54.76
2023-04-29T04:51:12.124Z,54.74
2023-04-29T04:54:14.615Z,55.14
2023-04-29T04:57:17.125Z,55.03
2023-04-29T05:00:20.462Z,55.02
2023-04-29T05:03:22.959Z,54.60
2023-04-29T05:06:25.921Z,54.58
2023-04-29T05:09:28.353Z,54.69
2023-04-29T05:12:31.310Z,55.06
2023-04-29T05:15:35.645Z,54.74
2023-04-29T05:18:39.214Z,54.95
2023-04-29T05:21:41.980Z,54.40
2023-04-29T05:24:48.393Z,54.79
2023-04-29T05:27:53.464Z,54.52
2023-04-29T05:30:56.925Z,54.54
2023-04-29T05:33:59.526Z,54.34
2023-04-29T05:37:02.318Z,54.24
2023-04-29T05:40:06.878Z,54.49
2023-04-29T05:43:10.350Z,54.56
2023-04-29T05:46:13.123Z,54.15
2023-04-29T05:49:16.116Z,54.33
2023-04-29T05:52:18.521Z,54.05
2023-04-29T05:55:24.379Z,54.43
2023-04-29T05:58:26.899Z,54.14
2023-04-29T06:01:29.271Z,54.53
2023-04-29T06:04:33.229Z,54.27
2023-04-29T06:07:54.398Z,54.11
2023-04-29T06:11:15.041Z,54.24
2023-04-29T06:14:17.817Z,54.21
2023-04-29T06:17:20.338Z,54.24
2023-04-29T06:20:22.882Z,54.22
2023-04-29T06:23:25.478Z,54.25
2023-04-29T06:26:28.190Z,54.05
2023-04-29T06:29:30.935Z,54.33
2023-04-29T06:32:34.080Z,54.16
2023-04-29T06:35:40.398Z,54.30
2023-04-29T06:38:45.765Z,54.31
2023-04-29T06:42:06.510Z,54.34
2023-04-29T06:45:19.409Z,54.27
2023-04-29T06:48:32.722Z,54.17
2023-04-29T06:51:35.867Z,54.34
2023-04-29T06:54:38.373Z,54.17
2023-04-29T06:57:40.714Z,54.11
2023-04-29T07:00:48.360Z,54.12
2023-04-29T07:03:50.897Z,54.43
2023-04-29T07:06:55.999Z,54.01
2023-04-29T07:09:58.304Z,54.22
2023-04-29T07:13:00.996Z,54.13
2023-04-29T07:16:03.384Z,54.17
2023-04-29T07:19:05.764Z,53.96
2023-04-29T07:22:09.538Z,54.37
2023-04-29T07:25:11.996Z,53.96
2023-04-29T07:28:14.419Z,54.20
2023-04-29T07:31:16.889Z,54.03
2023-04-29T07:34:19.314Z,54.03
2023-04-29T07:37:21.660Z,53.96
2023-04-29T07:40:24.092Z,53.91
2023-04-29T07:43:31.972Z,54.16
2023-04-29T07:46:35.426Z,53.98
2023-04-29T07:49:38.182Z,53.47
2023-04-29T07:52:40.741Z,53.11
2023-04-29T07:55:44.612Z,52.50
2023-04-29T07:58:47.400Z,52.19
2023-04-29T08:01:49.799Z,52.37
2023-04-29T08:04:54.614Z,52.55
2023-04-29T08:07:58.593Z,52.16
2023-04-29T08:11:01.736Z,52.20
2023-04-29T08:14:04.533Z,52.34
2023-04-29T08:17:07.522Z,52.29
2023-04-29T08:20:10.287Z,52.59
2023-04-29T08:23:12.669Z,52.62
2023-04-29T08:26:15.014Z,52.65
2023-04-29T08:29:17.430Z,52.69
2023-04-29T08:32:20.357Z,52.72
2023-04-29T08:35:22.829Z,52.49
2023-04-29T08:38:25.536Z,52.46
2023-04-29T08:41:28.050Z,52.56
2023-04-29T08:44:32.738Z,52.66
2023-04-29T08:47:35.791Z,52.61
2023-04-29T08:50:40.278Z,52.89
2023-04-29T08:53:42.783Z,52.67
2023-04-29T08:56:47.061Z,52.54
2023-04-29T08:59:49.599Z,52.43
2023-04-29T09:02:54.074Z,52.50
2023-04-29T09:06:00.350Z,52.73
2023-04-29T09:09:03.789Z,52.50
2023-04-29T09:12:06.693Z,52.58
2023-04-29T09:15:09.594Z,52.25
2023-04-29T09:18:12.033Z,52.22
2023-04-29T09:21:23.340Z,52.17
2023-04-29T09:24:29.850Z,52.05
2023-04-29T09:27:33.154Z,52.32
2023-04-29T09:30:45.893Z,51.91
2023-04-29T09:33:59.022Z,52.26
2023-04-29T09:37:01.593Z,51.89
2023-04-29T09:40:04.245Z,51.76
2023-04-29T09:43:15.813Z,51.84
2023-04-29T09:46:18.263Z,51.57
2023-04-29T09:49:28.811Z,51.54
2023-04-29T09:52:40.449Z,51.45
2023-04-29T09:55:54.692Z,51.67
2023-04-29T09:58:57.597Z,51.47
2023-04-29T10:02:00.064Z,51.68
2023-04-29T10:05:02.735Z,51.44
2023-04-29T10:08:05.411Z,51.23
2023-04-29T10:11:08.049Z,51.39
2023-04-29T10:14:15.752Z,51.08
2023-04-29T10:17:44.544Z,51.32
2023-04-29T10:20:48.612Z,51.19
2023-04-29T10:23:51.465Z,51.05
2023-04-29T10:26:56.830Z,51.00
2023-04-29T10:29:59.592Z,51.02
2023-04-29T10:33:04.621Z,50.89
2023-04-29T10:36:07.813Z,50.59
2023-04-29T10:39:17.554Z,50.94
2023-04-29T10:42:26.154Z,50.92
2023-04-29T10:45:35.142Z,50.68
2023-04-29T10:48:37.502Z,50.37
2023-04-29T10:51:44.370Z,50.76
2023-04-29T10:55:04.798Z,50.51
2023-04-29T10:58:40.462Z,50.38
2023-04-29T11:01:53.049Z,50.49
2023-04-29T11:05:09.456Z,50.25
2023-04-29T11:08:12.842Z,50.35
2023-04-29T11:11:15.771Z,50.38
2023-04-29T11:14:23.752Z,50.43
2023-04-29T11:17:27.148Z,50.27
2023-04-29T11:20:30.870Z,50.53
2023-04-29T11:23:35.189Z,50.37
2023-04-29T11:26:37.582Z,50.49
2023-04-29T11:29:40.359Z,50.41
2023-04-29T11:32:43.090Z,50.39
2023-04-29T11:35:45.565Z,50.18
2023-04-29T11:38:48.040Z,50.26
2023-04-29T11:41:52.570Z,50.09
2023-04-29T11:44:57.160Z,49.97
2023-04-29T11:47:59.588Z,50.22
2023-04-29T11:51:01.983Z,50.15
2023-04-29T11:54:05.088Z,50.35
2023-04-29T11:57:10.931Z,49.82
2023-04-29T12:00:14.028Z,49.89
2023-04-29T12:03:21.091Z,50.05
2023-04-29T12:06:27.991Z,50.18
2023-04-29T12:09:34.438Z,50.12
2023-04-29T12:12:37.654Z,49.95
2023-04-29T12:15:40.531Z,49.88
2023-04-29T12:18:43.558Z,50.13
2023-04-29T12:21:50.161Z,50.18
2023-04-29T12:24:54.638Z,50.29
2023-04-29T12:28:00.393Z,50.14
2023-04-29T12:31:02.852Z,50.34
2023-04-29T12:34:06.946Z,50.27
2023-04-29T12:37:12.504Z,50.19
2023-04-29T12:40:16.525Z,49.99
2023-04-29T12:43:19.034Z,50.11
2023-04-29T12:46:21.426Z,49.86
2023-04-29T12:49:24.882Z,50.00
2023-04-29T12:52:27.254Z,49.80
2023-04-29T12:55:29.802Z,49.98
2023-04-29T12:58:35.306Z,49.67
2023-04-29T13:01:38.620Z,49.79
2023-04-29T13:04:41.814Z,49.85
2023-04-29T13:07:46.691Z,49.88
2023-04-29T13:10:49.667Z,49.74
2023-04-29T13:13:52.042Z,50.09
2023-04-29T13:16:54.406Z,50.07
2023-04-29T13:19:56.842Z,50.11
2023-04-29T13:22:59.491Z,49.91
2023-04-29T13:26:02.002Z,50.21
2023-04-29T13:29:04.382Z,49.91
2023-04-29T13:32:08.340Z,50.19
2023-04-29T13:35:11.184Z,50.12
2023-04-29T13:38:13.753Z,50.07
2023-04-29T13:41:17.022Z,50.50
2023-04-29T13:44:29.616Z,50.28
2023-04-29T13:47:52.828Z,50.34
2023-04-29T13:57:40.115Z,50.04
2023-04-29T14:01:05.318Z,50.58
2023-04-29T14:03:54.318Z,50.01
2023-04-29T14:06:57.795Z,50.30
2023-04-29T14:10:00.197Z,50.50
2023-04-29T14:13:03.305Z,50.47
2023-04-29T14:16:07.057Z,50.34
2023-04-29T14:19:09.709Z,50.05
2023-04-29T14:22:12.513Z,50.46
2023-04-29T14:25:14.942Z,50.49
2023-04-29T14:28:17.332Z,50.23
2023-04-29T14:31:19.749Z,50.35
2023-04-29T14:34:22.113Z,50.53
2023-04-29T14:37:24.514Z,50.52
2023-04-29T14:40:26.990Z,50.27
2023-04-29T14:43:29.379Z,50.39
2023-04-29T14:46:32.554Z,50.14
2023-04-29T14:49:34.988Z,50.59
2023-04-29T14:52:37.350Z,50.33
2023-04-29T14:55:39.637Z,50.56
2023-04-29T14:58:42.070Z,50.43
2023-04-29T15:01:44.563Z,50.53
2023-04-29T15:04:47.203Z,50.86
2023-04-29T15:07:49.585Z,50.33
2023-04-29T15:10:52.008Z,50.84
2023-04-29T15:13:54.452Z,50.62
2023-04-29T15:16:56.848Z,50.86
2023-04-29T15:19:59.290Z,50.59
2023-04-29T15:23:01.820Z,50.38
2023-04-29T15:26:04.194Z,50.53
2023-04-29T15:29:06.656Z,50.44
2023-04-29T15:32:10.634Z,50.67
2023-04-29T15:35:13.264Z,50.76
2023-04-29T15:38:15.775Z,50.35
2023-04-29T15:41:18.066Z,50.55
2023-04-29T15:44:20.364Z,50.56
2023-04-29T15:47:22.828Z,50.38
2023-04-29T15:50:25.205Z,50.77
2023-04-29T15:53:27.589Z,50.70
2023-04-29T15:56:30.773Z,50.67
2023-04-29T15:59:33.205Z,50.82
2023-04-29T16:02:35.702Z,50.94
2023-04-29T16:05:38.766Z,50.45
2023-04-29T16:08:41.239Z,50.55
2023-04-29T16:11:43.660Z,50.49
2023-04-29T16:14:46.390Z,50.60
2023-04-29T16:17:51.305Z,50.80
2023-04-29T16:20:53.681Z,50.81
2023-04-29T16:23:56.378Z,50.71
2023-04-29T16:26:59.273Z,50.67
2023-04-29T16:30:02.085Z,50.89
2023-04-29T16:33:04.668Z,50.95
2023-04-29T16:36:07.485Z,50.73
2023-04-29T16:39:09.937Z,50.56
2023-04-29T16:42:12.414Z,50.70
2023-04-29T16:45:14.775Z,50.58
2023-04-29T16:48:17.221Z,50.58
2023-04-29T16:51:19.631Z,50.89
2023-04-29T16:54:23.085Z,50.83
2023-04-29T16:57:26.585Z,50.85
2023-04-29T17:00:28.961Z,50.73
2023-04-29T17:03:31.415Z,50.86
2023-04-29T17:06:34.800Z,50.91
2023-04-29T17:09:37.189Z,50.97
2023-04-29T17:12:39.593Z,51.27
2023-04-29T17:15:41.997Z,51.21
2023-04-29T17:18:44.359Z,51.35
2023-04-29T17:21:46.736Z,51.51
2023-04-29T17:24:50.768Z,51.68
2023-04-29T17:27:53.294Z,51.80
2023-04-29T17:30:59.791Z,51.75
2023-04-29T17:34:08.338Z,51.93
2023-04-29T17:37:10.779Z,51.84
2023-04-29T17:40:13.332Z,51.99
2023-04-29T17:43:15.990Z,51.88
2023-04-29T17:46:19.001Z,52.25
2023-04-29T17:49:21.458Z,52.04
2023-04-29T17:52:24.006Z,52.29
2023-04-29T17:55:26.509Z,52.25
2023-04-29T17:58:29.198Z,52.20
2023-04-29T18:01:32.722Z,52.33
2023-04-29T18:04:35.225Z,52.42
2023-04-29T18:07:37.636Z,52.75
2023-04-29T18:10:40.185Z,52.68
2023-04-29T18:13:42.742Z,52.71
2023-04-29T18:16:45.341Z,53.05
2023-04-29T18:19:49.614Z,52.63
2023-04-29T18:22:52.036Z,53.09
2023-04-29T18:25:54.847Z,52.86
2023-04-29T18:28:57.375Z,53.00
2023-04-29T18:31:59.855Z,53.01
2023-04-29T18:35:02.394Z,53.26
2023-04-29T18:38:04.959Z,53.17
2023-04-29T18:41:08.650Z,53.10
2023-04-29T18:44:11.651Z,53.16
2023-04-29T18:47:14.195Z,53.23
2023-04-29T18:50:16.644Z,53.71
2023-04-29T18:53:19.643Z,53.33
2023-04-29T18:56:22.252Z,53.75
2023-04-29T18:59:24.791Z,53.60
2023-04-29T19:02:27.398Z,53.62
2023-04-29T19:05:29.859Z,53.66
2023-04-29T19:08:33.408Z,53.93
2023-04-29T19:11:36.310Z,53.64
2023-04-29T19:14:39.182Z,53.94
2023-04-29T19:17:41.567Z,53.89
2023-04-29T19:20:43.998Z,53.84
2023-04-29T19:23:46.802Z,54.04
2023-04-29T19:26:49.410Z,53.93
2023-04-29T19:29:51.917Z,54.17
2023-04-29T19:32:54.635Z,54.47
2023-04-29T19:35:57.296Z,54.24
2023-04-29T19:38:59.854Z,54.31
2023-04-29T19:42:04.091Z,54.26
2023-04-29T19:45:08.201Z,53.97
2023-04-29T19:48:10.891Z,54.25
2023-04-29T19:51:13.925Z,54.54
2023-04-29T19:54:17.013Z,54.18
2023-04-29T19:57:19.467Z,54.24
2023-04-29T20:00:22.494Z,54.19
2023-04-29T20:03:25.571Z,54.40
2023-04-29T20:06:28.446Z,54.58
2023-04-29T20:09:31.922Z,54.57
2023-04-29T20:12:35.828Z,54.53
2023-04-29T20:15:38.282Z,54.18
2023-04-29T20:18:40.944Z,54.49
2023-04-29T20:21:43.354Z,54.51
2023-04-29T20:24:45.914Z,54.52
2023-04-29T20:27:48.428Z,54.32
2023-04-29T20:30:51.040Z,54.67
2023-04-29T20:33:53.881Z,54.55
2023-04-29T20:36:56.315Z,54.66
2023-04-29T20:39:58.717Z,54.59
2023-04-29T20:43:01.167Z,54.64
2023-04-29T20:46:03.550Z,54.63
2023-04-29T20:49:06.412Z,54.63
2023-04-29T20:52:08.878Z,54.24
2023-04-29T20:55:11.313Z,54.77
2023-04-29T20:58:13.750Z,54.73
2023-04-29T21:01:16.163Z,54.40
2023-04-29T21:04:18.584Z,54.59
2023-04-29T21:07:20.961Z,54.98
2023-04-29T21:10:23.716Z,54.87
2023-04-29T21:13:26.154Z,54.57
2023-04-29T21:16:28.546Z,54.85
2023-04-29T21:19:31.126Z,54.98
2023-04-29T21:22:33.462Z,54.66
2023-04-29T21:25:35.843Z,54.80
2023-04-29T21:28:38.249Z,54.55
2023-04-29T21:31:40.642Z,54.92
2023-04-29T21:34:43.258Z,55.00
2023-04-29T21:37:46.012Z,54.65
2023-04-29T21:40:48.625Z,54.83
2023-04-29T21:43:51.155Z,55.06
2023-04-29T21:46:53.578Z,54.78
2023-04-29T21:49:56.256Z,54.79
2023-04-29T21:52:58.805Z,54.88
2023-04-29T21:56:01.173Z,54.74
2023-04-29T21:59:03.639Z,54.85
2023-04-29T22:02:15.065Z,54.55
2023-04-29T22:05:17.582Z,54.71
2023-04-29T22:08:19.998Z,54.99
2023-04-29T22:11:22.459Z,54.67
2023-04-29T22:14:24.859Z,54.71
2023-04-29T22:17:27.251Z,54.63
2023-04-29T22:20:29.649Z,54.70
2023-04-29T22:23:31.976Z,55.00
2023-04-29T22:26:34.340Z,55.00
2023-04-29T22:29:36.717Z,54.78
2023-04-29T22:32:39.145Z,54.63
2023-04-29T22:35:41.560Z,54.72
2023-04-29T22:38:43.874Z,54.50
2023-04-29T22:41:46.293Z,55.05
2023-04-29T22:44:48.793Z,54.67
2023-04-29T22:47:51.223Z,54.67
2023-04-29T22:50:59.452Z,54.63
2023-04-29T22:54:01.972Z,54.70
2023-04-29T22:57:04.529Z,54.89
2023-04-29T23:00:07.485Z,54.89
2023-04-29T23:03:09.834Z,54.86
2023-04-29T23:06:12.445Z,54.71
2023-04-29T23:09:14.954Z,54.75
2023-04-29T23:12:17.678Z,54.85
2023-04-29T23:15:20.024Z,54.69
2023-04-29T23:18:22.333Z,55.02
2023-04-29T23:21:27.106Z,54.71
2023-04-29T23:24:29.477Z,54.85
2023-04-29T23:27:31.780Z,54.72
2023-04-29T23:30:34.520Z,55.04
2023-04-29T23:33:36.923Z,54.85
2023-04-29T23:36:39.437Z,54.60
2023-04-29T23:39:41.787Z,54.91
2023-04-29T23:42:44.107Z,54.66
2023-04-29T23:45:47.392Z,55.00
2023-04-29T23:48:49.944Z,55.01
2023-04-29T23:51:52.321Z,54.93
2023-04-29T23:54:54.780Z,54.81
2023-04-29T23:57:57.456Z,54.94
